Time;durP1;ratioP1;P1;durP2;ratioP2;P2;SDS_P1;SDS_P2;PMS_P1;PMS_P2;Temp;Humidity;BMP_temperature;BMP_pressure;BME280_temperature;BME280_humidity;BME280_pressure;Samples;Min_cycle;Max_cycle;Signal;HPM_P1;HPM_P2
2024/04/09 00:00:24;;;;;;;2.80;1.10;;;;;;;;;;5410190;26;20012;-60
2024/04/09 00:02:49;;;;;;;2.80;1.10;;;;;;;;;;5405936;26;19999;-60
2024/04/09 00:05:15;;;;;;;2.95;1.08;;;;;;;;;;5405267;26;20528;-61
2024/04/09 00:07:43;;;;;;;1.80;1.10;;;;;;;;;;5409711;26;20000;-60
2024/04/09 00:10:08;;;;;;;2.25;1.20;;;;;;;;;;5409819;26;20004;-60
2024/04/09 00:12:34;;;;;;;1.52;1.02;;;;;;;;;;5409645;26;20515;-60
2024/04/09 00:14:59;;;;;;;2.22;1.20;;;;;;;;;;5403599;26;19999;-61
2024/04/09 00:17:34;;;;;;;1.90;1.15;;;;;;;;;;5404978;26;20007;-60
2024/04/09 00:19:59;;;;;;;2.13;1.20;;;;;;;;;;5410285;26;19999;-61
2024/04/09 00:22:27;;;;;;;1.98;1.30;;;;;;;;;;5408381;26;20047;-60
2024/04/09 00:24:53;;;;;;;2.97;1.48;;;;;;;;;;5406129;26;20000;-60
2024/04/09 00:27:18;;;;;;;1.60;1.10;;;;;;;;;;5390338;26;19996;-61
2024/04/09 00:29:44;;;;;;;3.13;1.27;;;;;;;;;;5389965;26;20018;-61
2024/04/09 00:32:09;;;;;;;2.00;1.00;;;;;;;;;;5389268;26;19996;-60
2024/04/09 00:34:34;;;;;;;2.28;1.33;;;;;;;;;;5380308;26;20570;-60
2024/04/09 00:37:00;;;;;;;2.47;1.00;;;;;;;;;;5385235;26;20534;-60
2024/04/09 00:39:27;;;;;;;2.38;1.00;;;;;;;;;;5404795;26;20003;-60
2024/04/09 00:41:53;;;;;;;2.35;1.30;;;;;;;;;;5396552;26;20001;-60
2024/04/09 00:44:23;;;;;;;1.70;1.00;;;;;;;;;;5407548;26;19996;-60
2024/04/09 00:46:48;;;;;;;3.75;1.10;;;;;;;;;;5392365;26;20008;-62
2024/04/09 00:49:14;;;;;;;1.60;0.90;;;;;;;;;;5409848;26;19995;-61
2024/04/09 00:51:40;;;;;;;2.17;1.30;;;;;;;;;;5409169;26;19995;-61
2024/04/09 00:54:05;;;;;;;3.00;1.45;;;;;;;;;;5404116;26;20010;-61
2024/04/09 00:56:31;;;;;;;2.10;1.00;;;;;;;;;;5376529;26;20000;-61
2024/04/09 00:58:56;;;;;;;1.65;1.10;;;;;;;;;;5407826;26;20007;-61
2024/04/09 01:01:21;;;;;;;1.83;1.15;;;;;;;;;;5410553;26;19991;-61
2024/04/09 01:03:48;;;;;;;1.95;1.00;;;;;;;;;;5409242;26;20010;-61
2024/04/09 01:06:13;;;;;;;2.17;0.90;;;;;;;;;;5411051;26;20365;-60
2024/04/09 01:08:38;;;;;;;2.05;1.00;;;;;;;;;;5414544;26;19992;-61
2024/04/09 01:11:04;;;;;;;2.28;1.00;;;;;;;;;;5414737;26;20382;-61
2024/04/09 01:13:29;;;;;;;2.78;1.00;;;;;;;;;;5411703;26;20448;-61
2024/04/09 01:15:54;;;;;;;2.33;1.02;;;;;;;;;;5414800;26;20009;-60
2024/04/09 01:18:20;;;;;;;3.47;1.20;;;;;;;;;;5412021;26;20011;-59
2024/04/09 01:20:45;;;;;;;2.85;1.30;;;;;;;;;;5403433;26;20861;-60
2024/04/09 01:23:11;;;;;;;2.08;1.17;;;;;;;;;;5402065;26;20441;-60
2024/04/09 01:25:37;;;;;;;1.55;0.90;;;;;;;;;;5411648;26;20039;-60
2024/04/09 01:28:04;;;;;;;3.22;1.35;;;;;;;;;;5410722;26;20606;-60
2024/04/09 01:30:29;;;;;;;1.65;0.85;;;;;;;;;;5411335;26;20068;-60
2024/04/09 01:32:54;;;;;;;1.40;0.98;;;;;;;;;;5410280;26;20047;-60
2024/04/09 01:35:20;;;;;;;2.03;1.17;;;;;;;;;;5390496;26;20015;-60
2024/04/09 01:37:45;;;;;;;2.35;1.20;;;;;;;;;;5378645;26;20015;-60
2024/04/09 01:40:13;;;;;;;2.10;0.90;;;;;;;;;;5410179;26;20003;-59
2024/04/09 01:42:38;;;;;;;1.50;1.00;;;;;;;;;;5409592;26;20012;-60
2024/04/09 01:45:04;;;;;;;2.78;1.20;;;;;;;;;;5410447;26;20014;-61
2024/04/09 01:47:30;;;;;;;3.25;0.90;;;;;;;;;;5406241;26;20000;-60
2024/04/09 01:49:57;;;;;;;2.35;1.10;;;;;;;;;;5408729;26;20073;-60
2024/04/09 01:52:22;;;;;;;2.10;1.13;;;;;;;;;;5409430;26;20075;-60
2024/04/09 01:54:48;;;;;;;1.92;1.02;;;;;;;;;;5410711;26;20011;-60
2024/04/09 01:57:13;;;;;;;2.35;0.98;;;;;;;;;;5411345;26;20501;-59
2024/04/09 01:59:41;;;;;;;2.67;0.98;;;;;;;;;;5409954;26;19996;-60
2024/04/09 02:02:07;;;;;;;1.77;0.93;;;;;;;;;;5409529;26;20080;-60
2024/04/09 02:04:33;;;;;;;2.85;1.10;;;;;;;;;;5410436;26;20011;-60
2024/04/09 02:06:59;;;;;;;2.00;1.15;;;;;;;;;;5410922;26;20004;-59
2024/04/09 02:09:25;;;;;;;1.77;0.95;;;;;;;;;;5402923;26;20013;-59
2024/04/09 02:11:50;;;;;;;2.50;0.98;;;;;;;;;;5410237;26;20453;-60
2024/04/09 02:14:16;;;;;;;2.15;1.10;;;;;;;;;;5407624;26;20004;-60
2024/04/09 02:16:41;;;;;;;2.72;1.08;;;;;;;;;;5411209;26;20298;-60
2024/04/09 02:19:06;;;;;;;2.15;1.20;;;;;;;;;;5410620;26;20022;-60
2024/04/09 02:21:32;;;;;;;2.90;1.10;;;;;;;;;;5391010;26;20015;-60
2024/04/09 02:23:57;;;;;;;2.30;1.33;;;;;;;;;;5395451;26;20007;-60
2024/04/09 02:26:24;;;;;;;2.65;1.30;;;;;;;;;;5410760;26;20463;-60
2024/04/09 02:28:50;;;;;;;4.82;1.48;;;;;;;;;;5402397;26;20072;-59
2024/04/09 02:31:15;;;;;;;3.25;1.40;;;;;;;;;;5410746;26;20003;-60
2024/04/09 02:33:40;;;;;;;2.08;1.20;;;;;;;;;;5410023;26;20004;-61
2024/04/09 02:36:06;;;;;;;2.58;1.25;;;;;;;;;;5410132;26;20286;-59
2024/04/09 02:38:37;;;;;;;2.47;1.50;;;;;;;;;;5408708;26;20524;-60
2024/04/09 02:41:03;;;;;;;2.80;1.27;;;;;;;;;;5410246;26;20004;-60
2024/04/09 02:43:28;;;;;;;2.25;1.20;;;;;;;;;;5409958;26;20000;-60
2024/04/09 02:45:54;;;;;;;2.20;1.30;;;;;;;;;;5410306;26;20438;-59
2024/04/09 02:48:20;;;;;;;2.45;1.17;;;;;;;;;;5409990;26;20575;-60
2024/04/09 02:50:55;;;;;;;2.20;1.25;;;;;;;;;;5410428;26;20010;-60
2024/04/09 02:53:20;;;;;;;2.08;1.23;;;;;;;;;;5408970;26;20008;-60
2024/04/09 02:55:46;;;;;;;2.45;1.20;;;;;;;;;;5409863;26;20004;-60
2024/04/09 02:58:12;;;;;;;1.50;1.00;;;;;;;;;;5410224;26;19999;-59
2024/04/09 03:00:38;;;;;;;1.63;1.02;;;;;;;;;;5410121;26;20675;-60
2024/04/09 03:03:04;;;;;;;2.10;1.08;;;;;;;;;;5408172;26;20252;-59
2024/04/09 03:05:30;;;;;;;2.97;1.30;;;;;;;;;;5407346;26;20004;-60
2024/04/09 03:07:55;;;;;;;2.22;0.90;;;;;;;;;;5407702;26;20437;-59
2024/04/09 03:10:21;;;;;;;3.00;1.20;;;;;;;;;;5409459;26;19996;-59
2024/04/09 03:12:46;;;;;;;2.33;1.20;;;;;;;;;;5409141;26;20023;-60
2024/04/09 03:15:11;;;;;;;2.38;1.23;;;;;;;;;;5403160;26;20000;-60
2024/04/09 03:17:39;;;;;;;1.85;1.15;;;;;;;;;;5409347;26;20014;-59
2024/04/09 03:20:05;;;;;;;2.00;1.25;;;;;;;;;;5408843;26;20073;-60
2024/04/09 03:22:30;;;;;;;2.67;1.15;;;;;;;;;;5409126;26;19996;-60
2024/04/09 03:24:56;;;;;;;2.72;1.15;;;;;;;;;;5410664;26;20026;-59
2024/04/09 03:27:21;;;;;;;2.00;1.10;;;;;;;;;;5407291;26;19995;-59
2024/04/09 03:29:49;;;;;;;1.70;1.20;;;;;;;;;;5409202;26;20404;-60
2024/04/09 03:32:14;;;;;;;1.80;1.30;;;;;;;;;;5408493;26;20015;-60
2024/04/09 03:34:40;;;;;;;1.80;1.00;;;;;;;;;;5409499;26;20010;-61
2024/04/09 03:37:05;;;;;;;1.67;0.98;;;;;;;;;;5409769;26;20023;-60
2024/04/09 03:39:30;;;;;;;1.95;1.35;;;;;;;;;;5409808;26;20005;-60
2024/04/09 03:41:56;;;;;;;2.13;1.00;;;;;;;;;;5408759;26;20062;-59
2024/04/09 03:44:21;;;;;;;2.35;1.40;;;;;;;;;;5409289;26;20003;-59
2024/04/09 03:46:46;;;;;;;2.67;1.20;;;;;;;;;;5409151;26;20013;-60
2024/04/09 03:49:12;;;;;;;1.77;1.00;;;;;;;;;;5406566;26;20022;-60
2024/04/09 03:51:37;;;;;;;2.53;1.27;;;;;;;;;;5409677;26;20445;-60
2024/04/09 03:54:02;;;;;;;2.45;1.30;;;;;;;;;;5401255;26;20224;-60
2024/04/09 03:56:28;;;;;;;3.35;1.30;;;;;;;;;;5409999;26;20010;-61
2024/04/09 03:58:53;;;;;;;2.67;1.23;;;;;;;;;;5407910;26;20012;-60
2024/04/09 04:01:19;;;;;;;2.22;1.17;;;;;;;;;;5396396;26;20003;-59
2024/04/09 04:03:45;;;;;;;1.90;1.10;;;;;;;;;;5403516;26;20011;-59
2024/04/09 04:06:10;;;;;;;2.08;1.20;;;;;;;;;;5407054;26;20135;-59
2024/04/09 04:08:37;;;;;;;3.35;1.20;;;;;;;;;;5405857;26;19999;-58
2024/04/09 04:11:03;;;;;;;2.22;1.08;;;;;;;;;;5407072;26;20007;-61
2024/04/09 04:13:29;;;;;;;2.00;1.20;;;;;;;;;;5409653;26;20019;-59
2024/04/09 04:15:57;;;;;;;2.00;1.10;;;;;;;;;;5390023;26;20004;-59
2024/04/09 04:18:23;;;;;;;2.75;1.35;;;;;;;;;;5404147;26;20816;-59
2024/04/09 04:20:54;;;;;;;2.35;1.48;;;;;;;;;;5406232;26;20022;-59
2024/04/09 04:23:20;;;;;;;2.17;1.15;;;;;;;;;;5398811;26;19999;-59
2024/04/09 04:26:06;;;;;;;4.40;1.50;;;;;;;;;;5407157;26;20037;-58
2024/04/09 04:28:35;;;;;;;2.95;1.23;;;;;;;;;;5401470;26;20003;-59
2024/04/09 04:31:01;;;;;;;3.05;1.80;;;;;;;;;;5403117;26;20319;-58
2024/04/09 04:33:27;;;;;;;2.53;1.50;;;;;;;;;;5408066;26;20045;-59
2024/04/09 04:35:52;;;;;;;2.60;1.40;;;;;;;;;;5407909;26;20014;-59
2024/04/09 04:38:17;;;;;;;2.70;1.27;;;;;;;;;;5403187;26;20624;-59
2024/04/09 04:40:46;;;;;;;5.57;1.73;;;;;;;;;;5407631;26;20000;-60
2024/04/09 04:43:13;;;;;;;3.80;1.70;;;;;;;;;;5409231;26;20018;-58
2024/04/09 04:45:39;;;;;;;3.50;1.60;;;;;;;;;;5400730;26;20003;-58
2024/04/09 04:48:04;;;;;;;3.17;1.65;;;;;;;;;;5407467;26;20080;-58
2024/04/09 04:50:30;;;;;;;3.15;1.63;;;;;;;;;;5392763;26;20166;-59
2024/04/09 04:52:56;;;;;;;2.38;1.40;;;;;;;;;;5402791;26;20012;-60
2024/04/09 04:55:21;;;;;;;3.97;1.98;;;;;;;;;;5407424;26;20018;-58
2024/04/09 04:57:47;;;;;;;3.38;1.98;;;;;;;;;;5408079;26;20003;-59
2024/04/09 05:00:12;;;;;;;2.65;1.52;;;;;;;;;;5406821;26;20019;-59
2024/04/09 05:02:37;;;;;;;3.30;1.88;;;;;;;;;;5405536;26;20023;-58
2024/04/09 05:05:04;;;;;;;3.00;1.63;;;;;;;;;;5408400;26;20015;-59
2024/04/09 05:07:29;;;;;;;4.50;2.00;;;;;;;;;;5407308;26;20080;-59
2024/04/09 05:09:55;;;;;;;7.35;2.95;;;;;;;;;;5402253;26;20015;-58
2024/04/09 05:12:20;;;;;;;6.95;2.10;;;;;;;;;;5406223;26;20012;-59
2024/04/09 05:14:45;;;;;;;6.50;2.25;;;;;;;;;;5395772;26;20412;-58
2024/04/09 05:17:11;;;;;;;3.75;1.80;;;;;;;;;;5400682;26;20137;-57
2024/04/09 05:19:36;;;;;;;3.60;2.15;;;;;;;;;;5404645;26;20885;-58
2024/04/09 05:22:02;;;;;;;3.28;1.90;;;;;;;;;;5405807;26;20022;-60
2024/04/09 05:24:27;;;;;;;3.10;1.60;;;;;;;;;;5391728;26;20436;-57
2024/04/09 05:26:53;;;;;;;4.60;1.80;;;;;;;;;;5400710;26;20023;-58
2024/04/09 05:29:18;;;;;;;3.25;1.75;;;;;;;;;;5404060;26;20026;-59
2024/04/09 05:31:44;;;;;;;3.22;1.83;;;;;;;;;;5405154;26;19999;-60
2024/04/09 05:34:09;;;;;;;3.88;1.80;;;;;;;;;;5383614;26;20000;-60
2024/04/09 05:36:34;;;;;;;4.00;2.60;;;;;;;;;;5394657;26;20011;-58
2024/04/09 05:39:00;;;;;;;5.07;1.83;;;;;;;;;;5402105;26;20014;-60
2024/04/09 05:41:25;;;;;;;5.07;1.70;;;;;;;;;;5397691;26;20007;-57
2024/04/09 05:43:50;;;;;;;3.67;1.80;;;;;;;;;;5405142;26;20026;-58
2024/04/09 05:46:15;;;;;;;4.93;2.10;;;;;;;;;;5402887;26;19996;-58
2024/04/09 05:48:41;;;;;;;3.80;2.08;;;;;;;;;;5403491;26;19996;-58
2024/04/09 05:51:06;;;;;;;6.18;2.10;;;;;;;;;;5406931;26;19996;-59
2024/04/09 05:53:31;;;;;;;5.38;1.90;;;;;;;;;;5399111;26;20015;-60
2024/04/09 05:55:57;;;;;;;6.25;2.10;;;;;;;;;;5408681;26;20340;-56
2024/04/09 05:58:22;;;;;;;7.32;1.90;;;;;;;;;;5408986;26;20011;-57
2024/04/09 06:00:51;;;;;;;8.00;2.20;;;;;;;;;;5400386;26;19996;-57
2024/04/09 06:03:16;;;;;;;4.57;2.08;;;;;;;;;;5410885;26;20008;-57
2024/04/09 06:05:41;;;;;;;5.00;1.95;;;;;;;;;;5401151;26;20072;-57
2024/04/09 06:08:07;;;;;;;5.38;2.30;;;;;;;;;;5404368;26;20006;-57
2024/04/09 06:10:32;;;;;;;4.07;1.75;;;;;;;;;;5388849;26;19995;-57
2024/04/09 06:12:58;;;;;;;5.65;2.30;;;;;;;;;;5398991;26;20043;-57
2024/04/09 06:15:23;;;;;;;6.07;1.88;;;;;;;;;;5394671;26;20018;-57
2024/04/09 06:17:48;;;;;;;5.50;2.20;;;;;;;;;;5397975;26;20019;-57
2024/04/09 06:20:14;;;;;;;4.68;1.95;;;;;;;;;;5397306;26;20011;-57
2024/04/09 06:22:39;;;;;;;5.25;1.92;;;;;;;;;;5390611;26;19996;-58
2024/04/09 06:25:06;;;;;;;3.50;1.73;;;;;;;;;;5390365;26;19999;-58
2024/04/09 06:27:31;;;;;;;4.22;1.92;;;;;;;;;;5391583;26;20000;-57
2024/04/09 06:29:57;;;;;;;3.88;1.75;;;;;;;;;;5391337;26;20078;-57
2024/04/09 06:32:22;;;;;;;2.88;1.40;;;;;;;;;;5398049;26;20000;-57
2024/04/09 06:34:47;;;;;;;4.53;1.75;;;;;;;;;;5388679;26;19996;-57
2024/04/09 06:37:13;;;;;;;6.18;1.90;;;;;;;;;;5400819;26;19996;-57
2024/04/09 06:39:38;;;;;;;5.88;2.03;;;;;;;;;;5393194;26;20003;-56
2024/04/09 06:42:04;;;;;;;6.93;1.90;;;;;;;;;;5389413;26;20503;-57
2024/04/09 06:44:29;;;;;;;5.57;1.55;;;;;;;;;;5389628;26;20008;-57
2024/04/09 06:46:55;;;;;;;3.90;1.63;;;;;;;;;;5394874;26;20099;-57
2024/04/09 06:49:20;;;;;;;4.55;1.65;;;;;;;;;;5400062;26;20475;-58
2024/04/09 06:51:46;;;;;;;5.80;1.88;;;;;;;;;;5387796;26;20008;-57
2024/04/09 06:54:11;;;;;;;4.18;1.75;;;;;;;;;;5384352;26;20047;-61
2024/04/09 06:56:36;;;;;;;4.60;2.40;;;;;;;;;;5393575;26;20565;-57
2024/04/09 06:59:02;;;;;;;5.00;1.75;;;;;;;;;;5394198;26;20051;-60
2024/04/09 07:01:28;;;;;;;3.00;1.80;;;;;;;;;;5388941;26;20013;-58
2024/04/09 07:03:53;;;;;;;3.03;1.65;;;;;;;;;;5389603;26;20000;-57
2024/04/09 07:06:19;;;;;;;4.10;1.92;;;;;;;;;;5390551;26;20553;-58
2024/04/09 07:08:45;;;;;;;3.60;1.73;;;;;;;;;;5389841;26;21020;-59
2024/04/09 07:11:10;;;;;;;4.20;2.00;;;;;;;;;;5388726;26;20082;-57
2024/04/09 07:13:36;;;;;;;3.67;1.77;;;;;;;;;;5391563;26;20015;-59
2024/04/09 07:16:02;;;;;;;3.83;1.80;;;;;;;;;;5388599;26;20010;-58
2024/04/09 07:18:27;;;;;;;5.80;2.13;;;;;;;;;;5402975;26;20461;-58
2024/04/09 07:20:53;;;;;;;4.50;2.00;;;;;;;;;;5396321;26;20000;-58
2024/04/09 07:23:18;;;;;;;3.88;1.65;;;;;;;;;;5393115;26;19996;-58
2024/04/09 07:25:43;;;;;;;5.03;2.13;;;;;;;;;;5391291;26;19996;-58
2024/04/09 07:28:09;;;;;;;5.40;2.00;;;;;;;;;;5391679;26;20512;-58
2024/04/09 07:30:37;;;;;;;3.30;1.92;;;;;;;;;;5388887;26;20099;-57
2024/04/09 07:33:02;;;;;;;6.05;2.05;;;;;;;;;;5398450;26;20018;-59
2024/04/09 07:35:28;;;;;;;3.88;1.60;;;;;;;;;;5390835;26;20031;-58
2024/04/09 07:37:53;;;;;;;4.93;2.00;;;;;;;;;;5390734;26;19996;-58
2024/04/09 07:40:19;;;;;;;5.65;1.75;;;;;;;;;;5389668;26;20006;-58
2024/04/09 07:42:44;;;;;;;4.68;2.03;;;;;;;;;;5390308;26;20036;-58
2024/04/09 07:45:10;;;;;;;3.72;2.00;;;;;;;;;;5388153;26;22446;-60
2024/04/09 07:47:35;;;;;;;4.45;1.88;;;;;;;;;;5395734;26;20456;-58
2024/04/09 07:50:08;;;;;;;5.30;2.00;;;;;;;;;;5394905;26;20599;-61
2024/04/09 07:52:34;;;;;;;3.50;1.95;;;;;;;;;;5391485;26;19999;-58
2024/04/09 07:55:00;;;;;;;4.50;2.10;;;;;;;;;;5387265;26;20588;-57
2024/04/09 07:57:26;;;;;;;5.32;1.83;;;;;;;;;;5390457;26;20387;-58
2024/04/09 07:59:51;;;;;;;4.65;2.10;;;;;;;;;;5399262;26;20040;-58
2024/04/09 08:02:16;;;;;;;4.78;2.20;;;;;;;;;;5396176;26;20634;-60
2024/04/09 08:04:41;;;;;;;5.70;2.03;;;;;;;;;;5390238;26;21067;-58
2024/04/09 08:07:07;;;;;;;5.60;2.03;;;;;;;;;;5388756;26;19999;-57
2024/04/09 08:09:32;;;;;;;4.63;1.92;;;;;;;;;;5386034;26;19991;-57
2024/04/09 08:11:58;;;;;;;3.75;1.80;;;;;;;;;;5387546;26;20050;-59
2024/04/09 08:14:23;;;;;;;7.55;1.90;;;;;;;;;;5389163;26;20006;-58
2024/04/09 08:16:49;;;;;;;6.70;1.98;;;;;;;;;;5388897;26;20007;-60
2024/04/09 08:19:14;;;;;;;7.63;2.15;;;;;;;;;;5390487;26;20562;-58
2024/04/09 08:21:39;;;;;;;5.03;2.17;;;;;;;;;;5388907;26;20018;-58
2024/04/09 08:24:05;;;;;;;4.05;1.73;;;;;;;;;;5389500;26;20008;-59
2024/04/09 08:26:30;;;;;;;3.80;1.80;;;;;;;;;;5389831;26;20020;-58
2024/04/09 08:28:57;;;;;;;4.30;2.08;;;;;;;;;;5389736;26;20015;-58
2024/04/09 08:31:29;;;;;;;5.68;2.00;;;;;;;;;;5389918;26;20000;-61
2024/04/09 08:33:54;;;;;;;3.85;1.95;;;;;;;;;;5390315;26;20008;-59
2024/04/09 08:36:19;;;;;;;4.82;1.90;;;;;;;;;;5399541;26;22270;-60
2024/04/09 08:38:45;;;;;;;3.58;1.67;;;;;;;;;;5392447;26;19996;-61
2024/04/09 08:41:10;;;;;;;3.95;2.08;;;;;;;;;;5389037;26;20093;-58
2024/04/09 08:43:36;;;;;;;5.72;2.00;;;;;;;;;;5388396;26;20076;-58
2024/04/09 08:46:02;;;;;;;5.55;1.90;;;;;;;;;;5387629;26;20011;-61
2024/04/09 08:48:27;;;;;;;6.68;2.03;;;;;;;;;;5383294;26;20000;-58
2024/04/09 08:50:52;;;;;;;4.72;1.70;;;;;;;;;;5359799;26;20031;-59
2024/04/09 08:53:18;;;;;;;4.38;2.00;;;;;;;;;;5396927;26;20022;-58
2024/04/09 08:55:44;;;;;;;5.50;1.80;;;;;;;;;;5390642;26;20018;-58
2024/04/09 08:58:12;;;;;;;6.03;1.83;;;;;;;;;;5387361;26;20008;-57
2024/04/09 09:00:37;;;;;;;4.65;2.00;;;;;;;;;;5388974;26;20027;-59
2024/04/09 09:03:03;;;;;;;2.58;1.50;;;;;;;;;;5387539;26;20018;-58
2024/04/09 09:05:29;;;;;;;4.50;1.50;;;;;;;;;;5390446;26;20008;-58
2024/04/09 09:08:00;;;;;;;5.68;1.90;;;;;;;;;;5395612;26;20003;-57
2024/04/09 09:10:26;;;;;;;7.25;1.58;;;;;;;;;;5385818;26;20460;-58
2024/04/09 09:13:02;;;;;;;5.05;1.60;;;;;;;;;;5387200;26;19996;-59
2024/04/09 09:15:27;;;;;;;3.92;1.45;;;;;;;;;;5395196;26;20015;-59
2024/04/09 09:17:53;;;;;;;5.38;1.77;;;;;;;;;;5390497;26;20019;-59
2024/04/09 09:20:19;;;;;;;3.03;1.50;;;;;;;;;;5392517;26;20071;-60
2024/04/09 09:22:45;;;;;;;3.50;1.52;;;;;;;;;;5421171;26;20062;-57
2024/04/09 09:25:22;;;;;;;3.35;1.50;;;;;;;;;;5394938;26;19996;-60
2024/04/09 09:27:48;;;;;;;3.63;1.35;;;;;;;;;;5386055;26;20475;-58
2024/04/09 09:30:16;;;;;;;2.38;1.20;;;;;;;;;;5401841;26;20026;-59
2024/04/09 09:32:50;;;;;;;4.20;1.40;;;;;;;;;;5398616;26;19999;-59
2024/04/09 09:35:17;;;;;;;4.72;1.40;;;;;;;;;;5387165;26;20073;-58
2024/04/09 09:37:42;;;;;;;3.58;1.58;;;;;;;;;;5405610;26;20015;-59
2024/04/09 09:40:09;;;;;;;2.65;1.67;;;;;;;;;;5417455;26;20334;-58
2024/04/09 09:42:34;;;;;;;4.45;1.60;;;;;;;;;;5397265;26;20624;-58
2024/04/09 09:45:02;;;;;;;4.47;1.70;;;;;;;;;;5391985;26;20006;-59
2024/04/09 09:47:28;;;;;;;5.40;2.22;;;;;;;;;;5386279;26;20019;-59
2024/04/09 09:49:53;;;;;;;4.35;1.85;;;;;;;;;;5400807;26;20034;-60
2024/04/09 09:52:18;;;;;;;3.83;1.92;;;;;;;;;;5403121;26;19999;-57
2024/04/09 09:54:45;;;;;;;4.38;2.30;;;;;;;;;;5408073;26;20002;-58
2024/04/09 09:57:12;;;;;;;5.10;2.05;;;;;;;;;;5395922;26;20064;-58
2024/04/09 09:59:47;;;;;;;5.13;2.22;;;;;;;;;;5395888;26;20011;-58
2024/04/09 10:02:15;;;;;;;3.70;2.20;;;;;;;;;;5405818;26;20014;-58
2024/04/09 10:04:40;;;;;;;3.63;2.17;;;;;;;;;;5420893;26;20333;-59
2024/04/09 10:07:06;;;;;;;5.53;2.30;;;;;;;;;;5402065;26;20063;-59
2024/04/09 10:09:40;;;;;;;5.35;2.50;;;;;;;;;;5387917;26;19996;-57
2024/04/09 10:12:07;;;;;;;4.45;1.70;;;;;;;;;;5397723;26;20007;-58
2024/04/09 10:14:38;;;;;;;4.78;2.03;;;;;;;;;;5391839;26;19996;-60
2024/04/09 10:17:13;;;;;;;5.72;2.10;;;;;;;;;;5384985;26;20036;-57
2024/04/09 10:19:38;;;;;;;4.63;1.73;;;;;;;;;;5389423;26;20011;-58
2024/04/09 10:22:05;;;;;;;2.90;1.70;;;;;;;;;;5400820;26;20000;-58
2024/04/09 10:24:31;;;;;;;4.80;2.22;;;;;;;;;;5392260;26;20118;-59
2024/04/09 10:26:56;;;;;;;4.03;1.70;;;;;;;;;;5395289;26;20456;-59
2024/04/09 10:29:24;;;;;;;4.07;2.08;;;;;;;;;;5392277;26;20011;-60
2024/04/09 10:31:49;;;;;;;2.60;1.45;;;;;;;;;;5404054;26;20453;-58
2024/04/09 10:34:24;;;;;;;2.55;1.70;;;;;;;;;;5397131;26;20011;-59
2024/04/09 10:36:56;;;;;;;3.75;1.52;;;;;;;;;;5389576;26;20032;-62
2024/04/09 10:39:24;;;;;;;3.25;1.60;;;;;;;;;;5423960;26;20396;-58
2024/04/09 10:41:57;;;;;;;4.67;1.87;;;;;;;;;;5388643;26;20146;-58
2024/04/09 10:44:25;;;;;;;3.95;1.42;;;;;;;;;;5392899;26;20228;-59
2024/04/09 10:46:50;;;;;;;2.72;1.10;;;;;;;;;;5390149;26;20027;-58
2024/04/09 10:49:17;;;;;;;3.05;1.20;;;;;;;;;;5389752;26;20432;-58
2024/04/09 10:51:42;;;;;;;2.15;1.20;;;;;;;;;;5389497;26;20042;-59
2024/04/09 10:54:12;;;;;;;2.72;1.15;;;;;;;;;;5386587;26;20080;-61
2024/04/09 10:56:38;;;;;;;4.65;1.40;;;;;;;;;;5390071;26;20015;-58
2024/04/09 10:59:12;;;;;;;5.30;1.08;;;;;;;;;;5395823;26;20298;-59
2024/04/09 11:01:37;;;;;;;1.98;1.00;;;;;;;;;;5398865;26;20387;-61
2024/04/09 11:04:03;;;;;;;4.40;1.00;;;;;;;;;;5387621;26;20294;-61
2024/04/09 11:06:28;;;;;;;2.28;0.98;;;;;;;;;;5431758;26;19999;-59
2024/04/09 11:08:54;;;;;;;1.73;1.02;;;;;;;;;;5398797;26;20005;-58
2024/04/09 11:11:19;;;;;;;2.72;1.10;;;;;;;;;;5387862;26;20021;-58
2024/04/09 11:13:45;;;;;;;1.92;1.00;;;;;;;;;;5397481;26;20004;-59
2024/04/09 11:16:17;;;;;;;3.03;1.10;;;;;;;;;;5404157;26;20017;-58
2024/04/09 11:18:42;;;;;;;2.67;1.10;;;;;;;;;;5408012;26;19999;-62
2024/04/09 11:21:07;;;;;;;2.35;0.80;;;;;;;;;;5408966;26;20464;-59
2024/04/09 11:23:33;;;;;;;2.00;1.10;;;;;;;;;;5407714;26;20011;-59
2024/04/09 11:25:59;;;;;;;2.00;0.90;;;;;;;;;;5409106;26;20004;-58
2024/04/09 11:28:24;;;;;;;1.42;0.80;;;;;;;;;;5411146;26;20006;-59
2024/04/09 11:30:58;;;;;;;3.78;0.80;;;;;;;;;;5407714;26;20000;-62
2024/04/09 11:33:26;;;;;;;1.70;0.90;;;;;;;;;;5408473;26;20047;-59
2024/04/09 11:35:52;;;;;;;2.65;0.90;;;;;;;;;;5402885;26;20007;-58
2024/04/09 11:38:17;;;;;;;2.92;0.93;;;;;;;;;;5409607;26;20003;-59
2024/04/09 11:40:43;;;;;;;1.67;0.60;;;;;;;;;;5408308;26;20014;-59
2024/04/09 11:43:10;;;;;;;1.70;0.63;;;;;;;;;;5398031;26;20015;-59
2024/04/09 11:45:36;;;;;;;2.13;0.70;;;;;;;;;;5405182;26;19999;-58
2024/04/09 11:48:01;;;;;;;1.38;0.82;;;;;;;;;;5386993;26;20012;-58
2024/04/09 11:50:27;;;;;;;1.50;0.80;;;;;;;;;;5408675;26;20007;-62
2024/04/09 11:52:52;;;;;;;2.50;0.90;;;;;;;;;;5409292;26;20015;-59
2024/04/09 11:55:17;;;;;;;2.22;0.60;;;;;;;;;;5402836;26;20925;-58
2024/04/09 11:57:44;;;;;;;1.98;0.68;;;;;;;;;;5403721;26;20019;-62
2024/04/09 12:00:13;;;;;;;5.80;0.80;;;;;;;;;;5406811;26;20036;-56
2024/04/09 12:02:42;;;;;;;1.38;0.80;;;;;;;;;;5403627;26;20184;-57
2024/04/09 12:05:07;;;;;;;3.63;0.75;;;;;;;;;;5407703;26;20007;-57
2024/04/09 12:07:32;;;;;;;2.42;0.60;;;;;;;;;;5409463;26;20080;-57
2024/04/09 12:09:58;;;;;;;2.38;0.80;;;;;;;;;;5407722;26;20031;-57
2024/04/09 12:12:23;;;;;;;1.92;0.60;;;;;;;;;;5401464;26;20003;-57
2024/04/09 12:14:48;;;;;;;2.88;0.68;;;;;;;;;;5400508;26;20737;-58
2024/04/09 12:17:14;;;;;;;3.58;0.57;;;;;;;;;;5405096;26;20018;-58
2024/04/09 12:19:40;;;;;;;1.67;0.70;;;;;;;;;;5409045;26;20018;-61
2024/04/09 12:22:05;;;;;;;1.63;0.60;;;;;;;;;;5406863;26;20011;-57
2024/04/09 12:24:31;;;;;;;2.83;0.70;;;;;;;;;;5406324;26;20076;-58
2024/04/09 12:26:57;;;;;;;2.38;0.55;;;;;;;;;;5409312;26;20011;-58
2024/04/09 12:29:23;;;;;;;2.40;0.50;;;;;;;;;;5407175;26;20018;-58
2024/04/09 12:31:48;;;;;;;5.55;0.60;;;;;;;;;;5407076;26;20068;-58
2024/04/09 12:34:14;;;;;;;2.00;0.90;;;;;;;;;;5392055;26;20076;-58
2024/04/09 12:36:39;;;;;;;2.35;0.70;;;;;;;;;;5388422;26;20893;-61
2024/04/09 12:39:04;;;;;;;4.07;0.70;;;;;;;;;;5390616;26;20036;-61
2024/04/09 12:41:30;;;;;;;1.33;0.60;;;;;;;;;;5387372;26;19996;-59
2024/04/09 12:43:55;;;;;;;1.08;0.52;;;;;;;;;;5395759;26;20004;-59
2024/04/09 12:46:21;;;;;;;1.55;0.85;;;;;;;;;;5391836;26;20010;-61
2024/04/09 12:48:46;;;;;;;2.38;0.75;;;;;;;;;;5389971;26;20046;-61
2024/04/09 12:51:11;;;;;;;3.67;0.90;;;;;;;;;;5396444;26;20326;-59
2024/04/09 12:53:37;;;;;;;2.92;0.77;;;;;;;;;;5394833;26;20290;-62
2024/04/09 12:56:03;;;;;;;1.55;0.77;;;;;;;;;;5388220;26;20318;-60
2024/04/09 12:58:28;;;;;;;2.08;0.70;;;;;;;;;;5394074;26;20003;-57
2024/04/09 13:00:53;;;;;;;0.98;0.50;;;;;;;;;;5396090;26;20011;-58
2024/04/09 13:03:20;;;;;;;0.98;0.52;;;;;;;;;;5389788;26;20035;-59
2024/04/09 13:05:45;;;;;;;1.50;0.70;;;;;;;;;;5387412;26;20014;-59
2024/04/09 13:08:11;;;;;;;1.85;0.52;;;;;;;;;;5397734;26;20356;-60
2024/04/09 13:10:36;;;;;;;1.77;0.60;;;;;;;;;;5386415;26;20019;-61
2024/04/09 13:13:02;;;;;;;1.02;0.50;;;;;;;;;;5389867;26;20008;-61
2024/04/09 13:15:27;;;;;;;1.35;0.70;;;;;;;;;;5390298;26;20364;-60
2024/04/09 13:17:52;;;;;;;2.00;0.52;;;;;;;;;;5386646;26;20000;-60
2024/04/09 13:20:18;;;;;;;1.65;0.50;;;;;;;;;;5389371;26;20542;-61
2024/04/09 13:22:43;;;;;;;1.08;0.55;;;;;;;;;;5390620;26;20010;-60
2024/04/09 13:25:08;;;;;;;1.15;0.50;;;;;;;;;;5388517;26;20022;-60
2024/04/09 13:27:34;;;;;;;1.45;0.50;;;;;;;;;;5381342;26;20014;-60
2024/04/09 13:30:00;;;;;;;1.58;0.55;;;;;;;;;;5398988;26;20480;-59
2024/04/09 13:32:26;;;;;;;1.27;0.47;;;;;;;;;;5390467;26;20450;-59
2024/04/09 13:34:51;;;;;;;1.42;0.60;;;;;;;;;;5385933;26;19997;-60
2024/04/09 13:37:17;;;;;;;1.35;0.65;;;;;;;;;;5384569;26;20012;-61
2024/04/09 13:39:43;;;;;;;1.40;0.60;;;;;;;;;;5396782;26;19992;-60
2024/04/09 13:42:08;;;;;;;1.38;0.60;;;;;;;;;;5392339;26;19999;-60
2024/04/09 13:44:34;;;;;;;1.30;0.52;;;;;;;;;;5405302;26;20041;-61
2024/04/09 13:47:00;;;;;;;2.05;0.70;;;;;;;;;;5397703;26;20926;-60
2024/04/09 13:49:26;;;;;;;1.40;0.60;;;;;;;;;;5390154;26;20090;-61
2024/04/09 13:51:51;;;;;;;0.60;0.40;;;;;;;;;;5386537;26;21089;-62
2024/04/09 13:54:16;;;;;;;1.38;0.50;;;;;;;;;;5384530;26;20015;-61
2024/04/09 13:56:43;;;;;;;1.33;0.60;;;;;;;;;;5390507;26;20004;-62
2024/04/09 13:59:08;;;;;;;2.45;0.50;;;;;;;;;;5390336;26;19995;-62
2024/04/09 14:01:34;;;;;;;2.78;0.50;;;;;;;;;;5390086;26;20008;-63
2024/04/09 14:03:59;;;;;;;1.20;0.47;;;;;;;;;;5396734;26;20321;-60
2024/04/09 14:06:24;;;;;;;1.85;0.43;;;;;;;;;;5388795;26;20510;-61
2024/04/09 14:08:50;;;;;;;2.83;0.88;;;;;;;;;;5388044;26;20628;-61
2024/04/09 14:11:15;;;;;;;1.30;0.60;;;;;;;;;;5391891;26;20439;-61
2024/04/09 14:13:41;;;;;;;1.58;0.70;;;;;;;;;;5388893;26;20004;-60
2024/04/09 14:16:06;;;;;;;0.60;0.30;;;;;;;;;;5390670;26;20007;-61
2024/04/09 14:18:33;;;;;;;1.00;0.57;;;;;;;;;;5388731;26;20651;-61
2024/04/09 14:21:04;;;;;;;2.63;0.52;;;;;;;;;;5419630;26;20785;-62
2024/04/09 14:23:30;;;;;;;2.72;0.40;;;;;;;;;;5396484;26;20019;-62
2024/04/09 14:25:57;;;;;;;1.17;0.30;;;;;;;;;;5390867;26;20022;-63
2024/04/09 14:28:22;;;;;;;1.27;0.40;;;;;;;;;;5384316;26;20011;-64
2024/04/09 14:30:48;;;;;;;1.67;0.50;;;;;;;;;;5390599;26;20007;-60
2024/04/09 14:33:13;;;;;;;2.67;0.47;;;;;;;;;;5391079;26;20096;-65
2024/04/09 14:35:39;;;;;;;2.17;0.40;;;;;;;;;;5390143;26;19996;-61